Time;durP1;ratioP1;P1;durP2;ratioP2;P2;SDS_P1;SDS_P2;PMS_P1;PMS_P2;Temp;Humidity;BMP_temperature;BMP_pressure;BME280_temperature;BME280_humidity;BME280_pressure;Samples;Min_cycle;Max_cycle;Signal;HPM_P1;HPM_P2
2020/12/21 00:00:14;;;;;;;19.00;11.65;;;;;;;6.36;91.02;99526.88;5063517;28;20035;-72
2020/12/21 00:02:39;;;;;;;20.13;12.23;;;;;;;6.20;91.75;99537.50;5059141;28;20486;-72
2020/12/21 00:05:06;;;;;;;17.15;11.60;;;;;;;6.19;91.44;99535.84;5052406;28;20029;-72
2020/12/21 00:07:32;;;;;;;18.70;11.80;;;;;;;6.22;92.21;99528.28;5052269;28;20024;-72
2020/12/21 00:09:57;;;;;;;20.83;11.30;;;;;;;6.43;92.09;99519.84;5052678;28;20498;-73
2020/12/21 00:12:23;;;;;;;19.27;11.07;;;;;;;6.55;91.79;99523.13;5053116;28;20025;-72
2020/12/21 00:14:48;;;;;;;15.93;10.23;;;;;;;6.82;91.00;99519.38;5052456;28;20143;-72
2020/12/21 00:17:13;;;;;;;15.93;9.85;;;;;;;6.90;90.83;99522.09;5051119;28;20021;-73
2020/12/21 00:19:38;;;;;;;16.35;9.90;;;;;;;6.81;90.20;99509.63;5052513;28;20029;-72
2020/12/21 00:22:04;;;;;;;20.02;10.65;;;;;;;6.80;90.41;99522.22;5051085;28;20071;-72
2020/12/21 00:24:29;;;;;;;18.65;11.43;;;;;;;6.72;91.18;99530.25;5038854;28;20452;-73
2020/12/21 00:26:54;;;;;;;18.15;11.32;;;;;;;6.58;91.56;99506.69;5050955;28;20045;-72
2020/12/21 00:29:20;;;;;;;19.50;12.32;;;;;;;6.58;91.70;99522.81;5051120;28;20047;-72
2020/12/21 00:31:46;;;;;;;21.95;12.73;;;;;;;6.56;91.94;99517.56;5051754;28;20029;-72
2020/12/21 00:34:13;;;;;;;21.10;12.48;;;;;;;6.45;91.93;99525.94;5052325;28;20060;-73
2020/12/21 00:36:42;;;;;;;22.48;15.25;;;;;;;6.42;92.06;99517.31;5051800;28;20027;-71
2020/12/21 00:39:09;;;;;;;18.88;12.15;;;;;;;6.22;92.44;99512.16;5066262;28;20123;-72
2020/12/21 00:41:35;;;;;;;20.35;12.93;;;;;;;6.31;92.76;99515.75;5052577;28;20032;-72
2020/12/21 00:44:00;;;;;;;23.13;12.20;;;;;;;6.27;92.72;99525.97;5051600;28;20029;-72
2020/12/21 00:46:27;;;;;;;17.58;10.68;;;;;;;6.38;92.85;99529.41;5051482;28;20091;-72
2020/12/21 00:48:54;;;;;;;16.75;10.50;;;;;;;6.45;92.12;99538.53;5051028;28;20553;-72
2020/12/21 00:51:20;;;;;;;24.00;10.88;;;;;;;6.66;91.51;99522.84;5051580;28;20048;-72
2020/12/21 00:53:45;;;;;;;15.23;9.63;;;;;;;6.63;91.06;99525.88;5051598;28;20509;-72
2020/12/21 00:56:11;;;;;;;15.80;10.00;;;;;;;6.52;91.03;99523.44;5052286;28;20343;-72
2020/12/21 00:58:38;;;;;;;20.63;10.85;;;;;;;6.53;91.91;99522.44;5032988;28;20083;-72
2020/12/21 01:01:07;;;;;;;18.58;10.70;;;;;;;6.47;91.75;99531.13;5045521;28;20024;-72
2020/12/21 01:03:32;;;;;;;17.35;10.38;;;;;;;6.36;92.17;99529.56;5049693;28;20112;-72
2020/12/21 01:05:57;;;;;;;16.73;10.35;;;;;;;6.25;92.62;99536.03;5047089;28;20455;-71
2020/12/21 01:08:22;;;;;;;18.65;11.68;;;;;;;6.13;92.82;99530.09;5049778;28;20090;-72
2020/12/21 01:10:49;;;;;;;20.70;11.35;;;;;;;6.15;93.13;99537.97;5032013;28;20025;-71
2020/12/21 01:13:15;;;;;;;19.67;10.93;;;;;;;6.17;93.18;99552.09;5050863;28;20382;-72
2020/12/21 01:15:41;;;;;;;20.10;11.55;;;;;;;5.98;93.23;99536.19;5048380;28;20029;-71
2020/12/21 01:18:07;;;;;;;16.70;10.68;;;;;;;6.02;92.83;99546.44;5051649;28;20032;-72
2020/12/21 01:20:32;;;;;;;21.85;11.75;;;;;;;5.93;93.48;99533.94;5051663;28;20052;-71
2020/12/21 01:22:57;;;;;;;16.95;11.48;;;;;;;5.83;93.58;99527.81;5033963;28;20064;-71
2020/12/21 01:25:22;;;;;;;21.40;11.75;;;;;;;5.89;93.70;99541.47;5030331;28;20025;-72
2020/12/21 01:27:48;;;;;;;21.42;11.63;;;;;;;5.74;93.58;99540.31;5050515;28;20067;-72
2020/12/21 01:30:13;;;;;;;25.25;11.85;;;;;;;5.75;93.34;99551.91;5050392;28;20028;-72
2020/12/21 01:32:38;;;;;;;16.13;10.40;;;;;;;5.79;93.51;99546.06;5051007;28;20040;-72
2020/12/21 01:35:04;;;;;;;16.15;10.77;;;;;;;6.05;93.27;99545.28;5049645;28;20029;-73
2020/12/21 01:37:29;;;;;;;18.27;10.80;;;;;;;6.22;92.61;99541.72;5049856;28;20029;-72
2020/12/21 01:39:55;;;;;;;15.02;9.98;;;;;;;6.03;91.63;99529.34;5050350;28;20033;-72
2020/12/21 01:42:20;;;;;;;15.68;10.20;;;;;;;6.12;91.48;99530.22;5050689;28;20475;-72
2020/12/21 01:44:47;;;;;;;17.35;10.57;;;;;;;6.21;92.04;99532.00;5049860;28;20033;-72
2020/12/21 01:47:13;;;;;;;17.45;10.43;;;;;;;6.07;91.57;99530.69;5050561;28;20481;-72
2020/12/21 01:49:39;;;;;;;15.15;9.85;;;;;;;6.08;92.18;99540.47;5050884;28;20036;-72
2020/12/21 01:52:07;;;;;;;18.55;10.98;;;;;;;5.89;92.42;99530.72;5050858;28;20383;-72
2020/12/21 01:54:33;;;;;;;18.90;11.50;;;;;;;5.93;92.39;99550.91;5050650;28;20036;-72
2020/12/21 01:56:59;;;;;;;18.38;10.60;;;;;;;6.09;92.45;99527.88;5051023;28;20398;-72
2020/12/21 01:59:25;;;;;;;17.67;10.77;;;;;;;6.19;92.44;99522.41;5063255;28;20025;-72
2020/12/21 02:01:51;;;;;;;16.85;10.07;;;;;;;6.21;92.14;99518.56;5047405;28;20493;-72
2020/12/21 02:04:16;;;;;;;19.52;10.65;;;;;;;6.37;91.87;99531.25;5045235;28;20051;-72
2020/12/21 02:06:42;;;;;;;17.20;10.43;;;;;;;6.34;92.43;99537.78;5054639;28;20025;-73
2020/12/21 02:09:07;;;;;;;22.33;10.90;;;;;;;6.25;92.56;99536.03;5055560;28;20068;-72
2020/12/21 02:11:32;;;;;;;18.63;11.10;;;;;;;6.20;92.33;99535.66;5037777;28;20881;-72
2020/12/21 02:13:57;;;;;;;18.10;10.02;;;;;;;6.05;92.00;99529.16;5057983;28;20024;-72
2020/12/21 02:16:23;;;;;;;17.85;10.52;;;;;;;5.98;92.32;99533.50;5054070;28;20021;-73
2020/12/21 02:18:48;;;;;;;16.55;10.02;;;;;;;5.97;92.43;99523.75;5053621;28;20024;-72
2020/12/21 02:21:13;;;;;;;20.02;9.88;;;;;;;5.91;92.77;99534.06;5053543;28;20029;-71
2020/12/21 02:23:39;;;;;;;17.63;10.90;;;;;;;5.90;93.12;99521.66;5053799;28;20025;-72
2020/12/21 02:26:04;;;;;;;16.38;10.43;;;;;;;5.90;93.03;99518.13;5035882;28;20017;-73
2020/12/21 02:28:29;;;;;;;14.50;9.27;;;;;;;5.92;93.39;99521.47;5054272;28;20052;-72
2020/12/21 02:30:54;;;;;;;14.60;9.10;;;;;;;5.99;93.51;99527.94;5059086;28;20036;-72
2020/12/21 02:33:20;;;;;;;14.48;8.98;;;;;;;5.99;93.75;99516.38;5037926;28;20028;-72
2020/12/21 02:35:45;;;;;;;14.15;9.35;;;;;;;5.93;93.62;99513.31;5033188;28;20026;-72
2020/12/21 02:38:10;;;;;;;13.80;9.05;;;;;;;5.97;93.42;99504.94;5051992;28;20406;-72
2020/12/21 02:40:37;;;;;;;15.90;10.07;;;;;;;6.04;93.61;99520.28;5036231;28;20402;-72
2020/12/21 02:43:03;;;;;;;14.30;9.68;;;;;;;6.04;93.45;99514.06;5053882;28;20032;-72
2020/12/21 02:45:28;;;;;;;18.55;11.02;;;;;;;6.01;93.34;99515.22;5052534;28;20025;-72
2020/12/21 02:47:54;;;;;;;18.70;11.60;;;;;;;5.78;92.85;99497.88;5052474;28;20124;-72
2020/12/21 02:50:19;;;;;;;21.17;12.13;;;;;;;5.91;92.53;99515.28;5054386;28;20109;-72
2020/12/21 02:52:45;;;;;;;20.13;11.57;;;;;;;5.78;92.11;99525.56;5032801;28;20076;-72
2020/12/21 02:55:10;;;;;;;19.42;11.75;;;;;;;5.59;92.54;99505.09;5042056;28;20523;-72
2020/12/21 02:57:35;;;;;;;19.90;11.27;;;;;;;5.60;93.17;99516.69;5036239;28;20028;-72
2020/12/21 03:00:01;;;;;;;20.23;11.35;;;;;;;5.66;93.47;99494.63;5052970;28;20120;-72
2020/12/21 03:02:26;;;;;;;16.17;10.80;;;;;;;5.80;94.08;99503.94;5053897;28;20025;-72
2020/12/21 03:04:51;;;;;;;19.73;12.15;;;;;;;5.88;93.52;99509.38;5052842;28;20032;-72
2020/12/21 03:07:17;;;;;;;20.75;11.73;;;;;;;5.88;93.33;99493.28;5053439;28;20036;-72
2020/12/21 03:09:42;;;;;;;18.17;10.57;;;;;;;5.69;93.37;99486.25;5052868;28;20029;-72
2020/12/21 03:12:07;;;;;;;18.60;11.50;;;;;;;5.70;93.90;99490.59;5054384;28;20401;-72
2020/12/21 03:14:32;;;;;;;17.83;10.48;;;;;;;5.77;94.12;99513.16;5053958;28;20033;-72
2020/12/21 03:16:58;;;;;;;13.60;9.32;;;;;;;5.78;93.39;99501.41;5053519;28;20397;-72
2020/12/21 03:19:23;;;;;;;15.90;8.95;;;;;;;5.68;93.28;99503.34;5052332;28;20036;-72
2020/12/21 03:21:48;;;;;;;17.33;9.82;;;;;;;5.62;93.80;99495.91;5054623;28;20037;-73
2020/12/21 03:24:13;;;;;;;15.07;9.38;;;;;;;5.63;93.13;99511.88;5032867;28;20025;-73
2020/12/21 03:26:39;;;;;;;14.80;8.57;;;;;;;5.59;93.84;99509.63;5033851;28;20379;-72
2020/12/21 03:29:04;;;;;;;14.77;9.75;;;;;;;5.41;94.01;99499.75;5042667;28;20033;-70
2020/12/21 03:31:29;;;;;;;20.30;12.48;;;;;;;5.36;93.65;99509.25;5053857;28;20040;-72
2020/12/21 03:33:55;;;;;;;16.90;11.05;;;;;;;5.10;94.26;99493.06;5053558;28;20072;-72
2020/12/21 03:36:21;;;;;;;22.27;13.57;;;;;;;5.19;94.61;99508.25;5052984;28;20463;-72
2020/12/21 03:38:46;;;;;;;20.70;11.65;;;;;;;4.94;94.47;99493.72;5034746;28;20032;-70
2020/12/21 03:41:12;;;;;;;18.25;10.40;;;;;;;4.93;94.84;99514.34;5052784;28;20598;-72
2020/12/21 03:43:37;;;;;;;19.27;11.15;;;;;;;4.71;94.49;99490.59;5053408;28;20039;-72
2020/12/21 03:46:02;;;;;;;17.65;10.18;;;;;;;4.76;95.26;99507.91;5032118;28;20483;-72
2020/12/21 03:48:28;;;;;;;21.48;10.55;;;;;;;4.59;94.88;99501.50;5052735;28;20025;-72
2020/12/21 03:50:53;;;;;;;21.23;10.70;;;;;;;4.57;94.74;99503.50;5051800;28;20132;-72
2020/12/21 03:53:18;;;;;;;122.03;12.40;;;;;;;4.45;94.93;99493.09;5052854;28;20029;-73
2020/12/21 03:55:43;;;;;;;67.03;11.55;;;;;;;4.40;94.80;99517.66;5053674;28;20496;-73
2020/12/21 03:58:09;;;;;;;70.80;9.50;;;;;;;4.35;95.00;99511.91;5052948;28;20111;-72
2020/12/21 04:00:34;;;;;;;30.20;10.15;;;;;;;4.32;94.86;99515.72;5052012;28;20037;-72
2020/12/21 04:02:59;;;;;;;14.98;10.18;;;;;;;4.31;95.23;99505.16;5052577;28;20040;-72
2020/12/21 04:05:25;;;;;;;21.50;11.10;;;;;;;4.36;95.40;99517.09;5052195;28;20036;-72
2020/12/21 04:07:50;;;;;;;18.10;11.02;;;;;;;4.40;95.53;99517.66;5053259;28;20613;-71
2020/12/21 04:10:15;;;;;;;34.03;11.55;;;;;;;4.41;95.45;99513.16;5051446;28;20067;-72
2020/12/21 04:12:41;;;;;;;17.38;10.32;;;;;;;4.45;95.38;99525.25;5053925;28;20055;-72
2020/12/21 04:15:06;;;;;;;17.92;10.27;;;;;;;4.44;95.71;99521.75;5050739;28;20154;-72
2020/12/21 04:17:32;;;;;;;19.92;11.38;;;;;;;4.43;95.35;99516.50;5053924;28;20039;-72
2020/12/21 04:19:57;;;;;;;18.95;11.82;;;;;;;4.53;95.39;99523.56;5052519;28;20047;-72
2020/12/21 04:22:22;;;;;;;18.95;11.50;;;;;;;4.61;95.69;99526.34;5058361;28;20033;-72
2020/12/21 04:24:48;;;;;;;17.95;11.00;;;;;;;4.52;95.50;99521.84;5062755;28;20036;-72
2020/12/21 04:27:13;;;;;;;16.00;9.75;;;;;;;4.46;95.23;99522.44;5051599;28;20039;-72
2020/12/21 04:29:38;;;;;;;17.23;10.82;;;;;;;4.34;95.31;99524.44;5052807;28;20088;-72
2020/12/21 04:32:04;;;;;;;21.52;12.20;;;;;;;4.31;95.53;99513.19;5031056;28;20078;-72
2020/12/21 04:34:30;;;;;;;19.23;11.52;;;;;;;4.23;95.58;99513.06;5033668;28;20183;-72
2020/12/21 04:36:55;;;;;;;18.33;11.57;;;;;;;4.23;95.76;99505.03;5048882;28;20029;-72
2020/12/21 04:39:23;;;;;;;18.80;10.77;;;;;;;4.39;95.41;99511.44;5036162;28;20024;-72
2020/12/21 04:41:56;;;;;;;17.35;10.85;;;;;;;4.55;95.59;99500.09;5051288;28;20067;-72
2020/12/21 04:44:22;;;;;;;15.30;10.35;;;;;;;4.50;94.79;99480.94;5053171;28;20033;-72
2020/12/21 04:46:52;;;;;;;19.95;9.75;;;;;;;4.33;94.68;99495.13;5053503;28;20065;-72
2020/12/21 04:49:17;;;;;;;25.75;10.45;;;;;;;4.21;94.30;99480.22;5051455;28;20107;-72
2020/12/21 04:51:45;;;;;;;15.25;8.45;;;;;;;3.95;94.41;99467.47;5052346;28;20503;-72
2020/12/21 04:54:11;;;;;;;15.70;9.35;;;;;;;3.98;94.68;99488.59;5042989;28;20020;-72
2020/12/21 04:56:38;;;;;;;15.07;9.52;;;;;;;4.07;94.84;99485.06;5052769;28;20535;-72
2020/12/21 04:59:03;;;;;;;18.15;10.02;;;;;;;4.07;94.99;99477.03;5052702;28;20107;-72
2020/12/21 05:01:28;;;;;;;15.43;9.63;;;;;;;4.07;94.50;99474.34;5051596;28;20056;-72
2020/12/21 05:03:54;;;;;;;16.27;10.60;;;;;;;4.01;95.17;99458.00;5052209;28;20028;-72
2020/12/21 05:06:19;;;;;;;19.40;10.60;;;;;;;3.94;94.88;99449.72;5053926;28;20025;-72
2020/12/21 05:08:45;;;;;;;19.00;10.80;;;;;;;4.03;94.89;99453.34;5034284;28;20024;-72
2020/12/21 05:11:10;;;;;;;16.63;10.73;;;;;;;4.00;94.77;99462.53;5078050;22;20362;-72
2020/12/21 05:13:36;;;;;;;17.45;10.30;;;;;;;4.00;95.34;99465.19;5051164;28;20028;-71
2020/12/21 05:16:02;;;;;;;16.85;10.38;;;;;;;4.03;95.20;99467.59;5043830;28;20029;-72
2020/12/21 05:18:29;;;;;;;28.58;11.32;;;;;;;4.04;95.62;99480.00;5042823;28;20082;-73
2020/12/21 05:21:00;;;;;;;74.13;10.93;;;;;;;3.76;94.34;99470.19;5038364;28;20084;-75
2020/12/21 05:23:26;;;;;;;31.75;11.00;;;;;;;3.70;94.55;99479.66;5012189;28;20032;-74
2020/12/21 05:26:04;;;;;;;19.30;10.98;;;;;;;3.70;95.15;99483.16;5030032;28;20398;-76
2020/12/21 05:28:40;;;;;;;14.40;9.40;;;;;;;3.72;95.31;99473.16;5015615;28;20029;-76
2020/12/21 05:31:07;;;;;;;14.02;8.10;;;;;;;3.58;94.96;99473.59;5031582;28;20490;-75
2020/12/21 05:33:34;;;;;;;15.98;9.23;;;;;;;3.71;95.01;99481.31;5030445;28;20465;-76
2020/12/21 05:36:09;;;;;;;23.83;10.93;;;;;;;3.85;95.38;99480.03;5030444;28;20022;-76
2020/12/21 05:38:34;;;;;;;16.90;9.70;;;;;;;3.91;95.14;99477.63;5028636;28;20029;-75
2020/12/21 05:41:26;;;;;;;57.72;12.23;;;;;;;4.01;95.72;99477.63;5034874;28;20445;-73
2020/12/21 05:43:53;;;;;;;18.55;10.30;;;;;;;3.98;95.77;99475.22;5036347;28;20028;-76
2020/12/21 05:46:23;;;;;;;19.90;11.20;;;;;;;4.33;95.61;99471.03;5031945;28;20033;-76
2020/12/21 05:48:54;;;;;;;17.25;10.30;;;;;;;4.51;95.37;99488.00;5014180;28;20021;-75
2020/12/21 05:51:25;;;;;;;15.93;10.30;;;;;;;4.34;94.92;99492.28;5014143;28;20029;-72
2020/12/21 05:53:53;;;;;;;15.68;10.63;;;;;;;4.29;93.89;99499.09;5031233;28;20075;-71
2020/12/21 05:56:19;;;;;;;13.15;8.38;;;;;;;4.18;94.07;99489.41;5031121;28;20017;-75
2020/12/21 05:58:45;;;;;;;22.60;7.88;;;;;;;3.97;93.63;99500.31;5031138;28;20386;-76
2020/12/21 06:01:12;;;;;;;16.30;7.70;;;;;;;3.73;93.28;99498.94;5031227;28;20022;-75
2020/12/21 06:03:46;;;;;;;13.30;7.45;;;;;;;3.69;93.77;99502.88;5031445;28;20417;-75
2020/12/21 06:06:14;;;;;;;16.20;9.88;;;;;;;3.86;94.39;99503.16;5030964;28;20044;-70
2020/12/21 06:08:40;;;;;;;14.18;9.05;;;;;;;3.84;94.45;99499.75;5034442;28;20033;-75
2020/12/21 06:11:17;;;;;;;16.50;8.95;;;;;;;4.23;94.92;99505.03;5031005;28;20025;-75
2020/12/21 06:13:48;;;;;;;18.27;9.98;;;;;;;4.21;93.70;99502.50;5030232;28;20033;-73
2020/12/21 06:16:16;;;;;;;13.43;9.05;;;;;;;4.07;93.37;99498.44;5010339;28;20018;-77
2020/12/21 06:18:41;;;;;;;15.38;8.90;;;;;;;4.07;93.07;99493.09;5030262;28;20021;-73
2020/12/21 06:21:06;;;;;;;13.60;8.32;;;;;;;3.95;92.91;99473.66;5028474;28;20241;-77
2020/12/21 06:23:42;;;;;;;13.43;8.65;;;;;;;3.92;93.14;99460.56;5030598;28;20072;-77
2020/12/21 06:26:12;;;;;;;16.42;8.45;;;;;;;3.85;93.28;99485.38;5030285;28;20040;-76
2020/12/21 06:28:38;;;;;;;;;;;;;;;3.67;92.91;99493.31;5030988;28;20037;-77
2020/12/21 06:31:18;;;;;;;23.95;9.93;;;;;;;3.64;94.67;99494.44;5010036;28;19915;-76
2020/12/21 06:33:45;;;;;;;17.52;9.45;;;;;;;3.61;94.44;99494.69;5029537;28;20029;-72
2020/12/21 06:36:12;;;;;;;14.77;8.57;;;;;;;3.45;94.10;99483.72;5029877;28;20427;-76
2020/12/21 06:38:48;;;;;;;20.55;10.38;;;;;;;3.41;94.32;99485.84;5025590;28;20632;-73
2020/12/21 06:41:18;;;;;;;15.30;9.52;;;;;;;3.31;95.12;99482.34;5031337;28;20068;-76
2020/12/21 06:44:14;;;;;;;18.42;9.10;;;;;;;3.32;94.89;99489.34;5030776;28;20422;-71
2020/12/21 06:46:39;;;;;;;15.10;9.55;;;;;;;3.27;94.42;99476.44;5028423;28;20030;-74
2020/12/21 06:49:13;;;;;;;15.30;9.30;;;;;;;3.39;94.37;99473.59;5031405;28;20036;-72
2020/12/21 06:51:42;;;;;;;22.17;10.52;;;;;;;3.42;94.86;99478.66;5033337;28;20457;-72
2020/12/21 06:54:09;;;;;;;;;;;;;;;3.47;94.77;99476.41;5035952;28;20033;-70
2020/12/21 06:56:35;;;;;;;17.35;9.57;;;;;;;3.41;94.67;99472.47;5034083;28;19944;-74
2020/12/21 06:59:00;;;;;;;15.23;9.32;;;;;;;3.47;94.97;99469.22;5034796;28;20061;-73
2020/12/21 07:01:28;;;;;;;16.52;10.60;;;;;;;3.46;94.64;99466.72;5034015;28;20034;-74
2020/12/21 07:03:54;;;;;;;14.85;9.15;;;;;;;3.57;94.76;99463.88;5034677;28;20067;-72
2020/12/21 07:06:19;;;;;;;16.17;8.63;;;;;;;3.58;95.03;99452.19;5035609;28;20022;-74
2020/12/21 07:08:46;;;;;;;15.13;8.93;;;;;;;3.57;94.57;99455.03;5034597;28;20036;-74
2020/12/21 07:11:21;;;;;;;16.15;9.80;;;;;;;3.60;94.80;99460.91;5035153;28;20083;-74
2020/12/21 07:13:50;;;;;;;16.23;9.10;;;;;;;3.63;95.23;99449.09;5031076;28;20079;-74
2020/12/21 07:16:17;;;;;;;16.98;9.48;;;;;;;3.79;94.86;99461.88;5029738;28;20395;-74
2020/12/21 07:18:44;;;;;;;13.38;7.97;;;;;;;3.78;95.05;99453.00;5014626;28;20036;-74
2020/12/21 07:21:11;;;;;;;12.00;7.60;;;;;;;3.65;94.82;99441.78;5029869;28;20154;-74
2020/12/21 07:23:37;;;;;;;11.15;7.43;;;;;;;3.55;94.09;99451.63;5030938;28;20104;-74
2020/12/21 07:26:03;;;;;;;15.15;8.25;;;;;;;3.46;94.29;99448.00;5030972;28;20033;-74
2020/12/21 07:28:29;;;;;;;12.10;7.88;;;;;;;3.43;94.52;99450.94;5031437;28;20382;-74
2020/12/21 07:31:05;;;;;;;11.93;7.72;;;;;;;3.48;94.60;99446.88;5031985;28;20025;-74
2020/12/21 07:33:30;;;;;;;11.48;7.75;;;;;;;3.49;94.51;99437.00;5030873;28;20029;-72
2020/12/21 07:35:57;;;;;;;13.02;7.05;;;;;;;3.53;94.11;99450.94;5033945;28;20026;-75
2020/12/21 07:38:23;;;;;;;14.40;8.50;;;;;;;3.53;94.30;99443.75;5041877;28;20025;-77
2020/12/21 07:40:50;;;;;;;18.70;9.73;;;;;;;3.75;94.98;99450.63;5017164;28;20076;-76
2020/12/21 07:43:29;;;;;;;20.35;9.57;;;;;;;3.93;95.71;99448.06;5028712;28;20059;-77
2020/12/21 07:46:01;;;;;;;15.80;9.13;;;;;;;4.03;95.81;99448.00;5027993;28;20029;-76
2020/12/21 07:48:27;;;;;;;14.55;8.02;;;;;;;4.35;95.53;99445.78;5029121;28;20037;-76
2020/12/21 07:50:53;;;;;;;13.45;8.20;;;;;;;4.47;95.08;99446.41;5010463;28;20026;-76
2020/12/21 07:53:19;;;;;;;13.13;8.13;;;;;;;4.47;94.28;99438.38;5028220;28;20029;-76
2020/12/21 07:55:55;;;;;;;10.45;7.13;;;;;;;4.84;93.89;99440.97;5033495;28;20507;-77
2020/12/21 07:58:20;;;;;;;12.57;7.07;;;;;;;4.99;93.17;99440.47;5047307;28;20078;-74
2020/12/21 08:00:57;;;;;;;11.35;6.97;;;;;;;4.91;92.64;99433.19;5032844;28;20447;-72
2020/12/21 08:03:24;;;;;;;13.52;7.53;;;;;;;4.96;92.43;99446.16;5031805;28;20017;-71
2020/12/21 08:05:51;;;;;;;15.35;8.80;;;;;;;4.95;92.15;99442.63;5032664;28;20041;-73
2020/12/21 08:08:22;;;;;;;12.35;7.40;;;;;;;4.80;90.70;99447.66;5033394;28;20017;-75
2020/12/21 08:10:54;;;;;;;7.50;5.15;;;;;;;4.47;88.44;99442.91;5013943;28;20085;-77
2020/12/21 08:13:21;;;;;;;10.73;5.80;;;;;;;4.31;89.83;99447.06;5032037;28;20053;-75
2020/12/21 08:15:46;;;;;;;8.70;5.70;;;;;;;4.30;92.48;99423.13;5031761;28;20410;-76
2020/12/21 08:18:12;;;;;;;10.32;5.95;;;;;;;4.61;92.77;99451.31;5032124;28;20026;-76
2020/12/21 08:20:51;;;;;;;10.25;5.88;;;;;;;4.83;92.49;99457.25;5032060;28;20031;-75
2020/12/21 08:23:31;;;;;;;13.13;5.55;;;;;;;4.99;91.45;99459.25;5027497;28;20025;-69
2020/12/21 08:25:57;;;;;;;7.03;5.00;;;;;;;5.02;90.72;99462.47;5029057;28;20491;-70
2020/12/21 08:28:31;;;;;;;8.63;5.05;;;;;;;5.16;90.36;99465.63;5030004;28;20036;-71
2020/12/21 08:31:08;;;;;;;8.77;5.75;;;;;;;5.24;90.13;99476.44;5028276;28;20553;-75
2020/12/21 08:33:34;;;;;;;9.07;5.10;;;;;;;5.22;90.44;99465.88;5030882;28;20036;-75
2020/12/21 08:36:16;;;;;;;8.00;5.15;;;;;;;5.26;90.20;99474.44;5031787;28;20056;-74
2020/12/21 08:38:43;;;;;;;9.95;5.45;;;;;;;5.41;90.26;99480.97;5032193;28;20032;-75
2020/12/21 08:41:09;;;;;;;10.48;5.57;;;;;;;5.39;89.87;99477.56;5031217;28;20075;-74
2020/12/21 08:43:34;;;;;;;9.32;4.78;;;;;;;5.38;89.13;99469.69;5031113;28;20425;-76
2020/12/21 08:46:05;;;;;;;7.00;4.38;;;;;;;5.33;89.64;99478.19;5029747;28;20029;-76
2020/12/21 08:48:30;;;;;;;8.40;5.35;;;;;;;5.37;89.60;99494.81;5031051;28;20033;-73
2020/12/21 08:50:55;;;;;;;11.90;6.25;;;;;;;5.39;89.59;99488.31;5031378;28;20391;-73
2020/12/21 08:53:21;;;;;;;10.63;6.05;;;;;;;5.35;89.93;99478.91;5029728;28;20022;-76
2020/12/21 08:55:46;;;;;;;8.15;5.78;;;;;;;5.20;89.08;99467.84;5036527;28;20048;-74
2020/12/21 08:58:11;;;;;;;10.55;6.35;;;;;;;5.28;89.85;99477.81;5031674;28;20493;-75
2020/12/21 09:00:36;;;;;;;11.45;6.75;;;;;;;5.19;89.54;99479.59;5031732;28;20052;-74
2020/12/21 09:03:02;;;;;;;12.10;6.78;;;;;;;5.18;89.98;99474.34;5011345;28;20044;-72
2020/12/21 09:05:27;;;;;;;14.95;7.55;;;;;;;5.26;89.05;99472.59;5030979;28;20491;-75
2020/12/21 09:07:52;;;;;;;12.85;7.25;;;;;;;5.24;89.79;99465.72;5028140;28;20026;-75
2020/12/21 09:10:18;;;;;;;13.23;7.15;;;;;;;5.37;89.54;99482.28;5002475;28;538921;-74
2020/12/21 09:12:44;;;;;;;11.68;7.28;;;;;;;5.52;89.31;99487.94;5031206;28;20033;-74
2020/12/21 09:15:09;;;;;;;11.35;6.63;;;;;;;5.70;89.14;99482.53;5030467;28;20029;-73
2020/12/21 09:17:36;;;;;;;13.82;6.32;;;;;;;5.91;88.93;99483.03;5032600;28;20032;-75
2020/12/21 09:20:02;;;;;;;10.43;5.88;;;;;;;6.01;88.35;99480.31;5031722;28;20446;-74
2020/12/21 09:22:27;;;;;;;10.18;6.10;;;;;;;5.99;88.30;99457.28;5050354;28;20105;-73
2020/12/21 09:24:53;;;;;;;10.88;5.75;;;;;;;6.04;87.53;99471.91;5049402;28;20477;-73
2020/12/21 09:27:18;;;;;;;12.68;6.75;;;;;;;6.14;87.34;99461.91;5049674;28;20045;-72
2020/12/21 09:29:43;;;;;;;19.45;10.02;;;;;;;6.26;87.14;99462.50;5050918;28;20029;-73
2020/12/21 09:32:08;;;;;;;15.02;8.70;;;;;;;6.33;86.30;99458.16;5045269;28;20049;-73
2020/12/21 09:34:34;;;;;;;12.73;7.95;;;;;;;6.48;86.58;99471.84;5050232;28;20033;-74
2020/12/21 09:37:00;;;;;;;11.75;7.75;;;;;;;6.43;87.03;99465.28;5045614;28;20093;-73
2020/12/21 09:39:25;;;;;;;10.02;6.15;;;;;;;6.57;86.50;99470.03;5044296;28;20025;-73
2020/12/21 09:41:56;;;;;;;10.15;5.93;;;;;;;6.59;86.29;99458.09;5046710;28;20033;-72
2020/12/21 09:44:22;;;;;;;9.85;6.18;;;;;;;6.56;86.87;99462.97;5053750;28;20026;-71
2020/12/21 09:46:51;;;;;;;11.55;7.30;;;;;;;6.44;87.43;99466.94;5051433;28;20052;-71
2020/12/21 09:49:16;;;;;;;11.63;6.25;;;;;;;6.32;87.85;99453.78;5054347;28;20044;-72
2020/12/21 09:51:42;;;;;;;12.20;7.03;;;;;;;6.34;87.50;99473.28;5054288;28;20025;-71
2020/12/21 09:54:08;;;;;;;8.65;5.90;;;;;;;6.35;87.76;99452.63;5053003;28;20021;-73
2020/12/21 09:56:33;;;;;;;12.60;6.00;;;;;;;6.46;87.60;99457.72;5050505;28;20036;-72
2020/12/21 09:58:58;;;;;;;9.52;5.60;;;;;;;6.50;86.77;99460.94;5049395;28;20471;-72
2020/12/21 10:01:28;;;;;;;11.45;5.68;;;;;;;6.43;87.66;99459.88;5017653;28;20057;-72
2020/12/21 10:04:04;;;;;;;;;;;;;;;6.56;87.19;99452.22;5036489;28;20021;-72
2020/12/21 10:06:30;;;;;;;9.38;5.40;;;;;;;6.65;86.92;99443.16;5034887;28;19913;-73
2020/12/21 10:08:55;;;;;;;11.02;5.72;;;;;;;6.67;87.06;99441.16;5032822;28;20021;-73
2020/12/21 10:11:20;;;;;;;9.52;5.38;;;;;;;6.75;87.26;99449.25;5031600;28;20033;-70
2020/12/21 10:13:45;;;;;;;9.40;5.75;;;;;;;7.01;86.36;99443.78;5033513;28;20026;-71
2020/12/21 10:16:12;;;;;;;6.93;4.97;;;;;;;7.02;85.92;99433.84;5031234;28;20037;-71
2020/12/21 10:18:38;;;;;;;8.50;5.70;;;;;;;7.06;85.89;99427.16;5032274;28;20079;-70
2020/12/21 10:21:05;;;;;;;8.23;5.03;;;;;;;7.29;85.29;99418.44;5031752;28;20112;-70
2020/12/21 10:23:30;;;;;;;9.93;5.28;;;;;;;7.29;85.26;99415.75;5032182;28;20036;-70
2020/12/21 10:25:56;;;;;;;8.82;5.00;;;;;;;7.19;85.45;99424.81;5032426;28;20026;-70
2020/12/21 10:28:21;;;;;;;10.07;5.28;;;;;;;7.33;84.74;99404.47;5033639;28;20033;-72
2020/12/21 10:30:46;;;;;;;12.85;6.78;;;;;;;7.32;84.96;99413.56;5035306;28;20471;-71
2020/12/21 10:33:11;;;;;;;14.63;6.78;;;;;;;7.20;85.36;99404.13;5029631;28;20030;-71
2020/12/21 10:35:38;;;;;;;12.38;6.95;;;;;;;7.19;85.54;99413.22;5040133;28;20037;-72
2020/12/21 10:38:03;;;;;;;10.43;7.43;;;;;;;7.29;85.71;99403.13;5030247;28;20018;-72
2020/12/21 10:40:29;;;;;;;12.50;7.47;;;;;;;7.21;85.96;99403.13;5035536;28;20116;-69
2020/12/21 10:42:54;;;;;;;11.93;6.22;;;;;;;7.36;84.82;99398.78;5035832;28;20025;-72
2020/12/21 10:45:19;;;;;;;10.25;5.75;;;;;;;7.43;84.62;99393.53;5003634;28;20035;-74
2020/12/21 10:47:46;;;;;;;8.45;5.28;;;;;;;7.51;83.96;99380.06;5034002;28;20022;-73
2020/12/21 10:50:11;;;;;;;9.70;4.60;;;;;;;7.59;83.80;99377.38;5033133;28;20056;-75
2020/12/21 10:52:36;;;;;;;7.93;4.30;;;;;;;7.44;84.68;99366.47;5035232;28;20431;-74
2020/12/21 10:55:01;;;;;;;9.35;4.45;;;;;;;7.49;83.44;99368.63;5034283;28;20029;-73
2020/12/21 10:57:27;;;;;;;8.27;4.68;;;;;;;7.64;82.95;99364.22;5035761;28;20037;-71
2020/12/21 10:59:52;;;;;;;10.25;5.07;;;;;;;7.47;83.74;99367.97;5033154;28;20029;-71
2020/12/21 11:02:17;;;;;;;8.85;4.20;;;;;;;7.60;84.14;99379.06;5035295;28;20033;-71
2020/12/21 11:04:44;;;;;;;7.40;4.45;;;;;;;7.53;83.81;99361.91;5034565;28;20032;-71
2020/12/21 11:07:10;;;;;;;7.15;4.70;;;;;;;7.54;83.89;99360.03;5037147;28;20021;-71
2020/12/21 11:09:35;;;;;;;10.57;4.63;;;;;;;7.41;84.07;99347.97;5048670;28;20028;-72
2020/12/21 11:12:00;;;;;;;9.57;4.45;;;;;;;7.34;83.74;99370.34;5079447;22;20493;-69
2020/12/21 11:14:25;;;;;;;12.35;4.32;;;;;;;7.35;83.98;99363.94;5068674;28;20029;-68
2020/12/21 11:16:57;;;;;;;9.68;5.25;;;;;;;7.16;84.63;99360.56;5068274;28;20390;-68
2020/12/21 11:19:22;;;;;;;9.48;5.55;;;;;;;7.32;84.73;99375.88;5035770;28;20045;-68
2020/12/21 11:21:48;;;;;;;9.38;5.97;;;;;;;7.45;84.01;99373.53;5052978;28;22678;-70
2020/12/21 11:24:13;;;;;;;10.15;6.15;;;;;;;7.31;83.88;99367.97;5053257;28;20095;-80
2020/12/21 11:26:38;;;;;;;13.38;7.30;;;;;;;7.32;83.35;99364.28;5053762;28;20029;-80
2020/12/21 11:29:05;;;;;;;19.92;10.05;;;;;;;7.33;83.59;99363.25;5055390;28;20386;-69